Time;durP1;ratioP1;P1;durP2;ratioP2;P2;SDS_P1;SDS_P2;PMS_P1;PMS_P2;Temp;Humidity;BMP_temperature;BMP_pressure;BME280_temperature;BME280_humidity;BME280_pressure;Samples;Min_cycle;Max_cycle;Signal;HPM_P1;HPM_P2
2020/07/21 00:00:37;;;;;;;7.9;3.6;;;;;;;17.29;75.52441;941.1619;;;;
2020/07/21 00:03:01;;;;;;;5.1;3.3;;;;;;;17.35;75.73242;941.1708;;;;
2020/07/21 00:05:31;;;;;;;4.9;3.3;;;;;;;17.46;75.20508;941.3333;;;;
2020/07/21 00:07:58;;;;;;;8.2;3.8;;;;;;;17.46;74.9502;941.3163;;;;
2020/07/21 00:10:37;;;;;;;5;3.3;;;;;;;17.56;74.34082;941.324;;;;
2020/07/21 00:13:05;;;;;;;4.4;3.5;;;;;;;17.66;73.94141;941.3383;;;;
2020/07/21 00:15:32;;;;;;;3.7;3.3;;;;;;;17.78;73.8916;941.3781;;;;
2020/07/21 00:18:03;;;;;;;4.9;3.4;;;;;;;17.81;73.33691;941.3351;;;;
2020/07/21 00:20:28;;;;;;;4.4;3.3;;;;;;;17.75;73.37402;941.3592;;;;
2020/07/21 00:22:53;;;;;;;9;4;;;;;;;17.75;73.35156;941.389;;;;
2020/07/21 00:25:20;;;;;;;6.1;3.6;;;;;;;17.75;73.2832;941.384;;;;
2020/07/21 00:27:45;;;;;;;6.6;3.5;;;;;;;17.77;73.20508;941.3629;;;;
2020/07/21 00:30:16;;;;;;;8.3;3.4;;;;;;;17.78;73.23926;941.3613;;;;
2020/07/21 00:32:41;;;;;;;7.6;3.4;;;;;;;17.68;73.21191;941.3899;;;;
2020/07/21 00:35:08;;;;;;;6.8;3.6;;;;;;;17.62;73.41113;941.3903;;;;
2020/07/21 00:37:35;;;;;;;5.6;3.2;;;;;;;17.5;73.87891;941.373;;;;
2020/07/21 00:40:00;;;;;;;5.9;3.4;;;;;;;17.51;74.07813;941.4149;;;;
2020/07/21 00:42:26;;;;;;;5.2;3.1;;;;;;;17.54;73.88477;941.3741;;;;
2020/07/21 00:44:51;;;;;;;5.1;3.3;;;;;;;17.49;74.1084;941.3747;;;;
2020/07/21 00:47:19;;;;;;;6.6;3.5;;;;;;;17.49;74.12012;941.3989;;;;
2020/07/21 00:49:43;;;;;;;5.7;3.5;;;;;;;17.56;73.93652;941.3755;;;;
2020/07/21 00:52:15;;;;;;;7.7;3.5;;;;;;;17.71;74.16895;941.3428;;;;
2020/07/21 00:54:42;;;;;;;4.5;3.3;;;;;;;17.79;73.60254;941.4312;;;;
2020/07/21 00:57:07;;;;;;;4.8;3.4;;;;;;;17.82;73.20117;941.3489;;;;
2020/07/21 00:59:36;;;;;;;5.4;3.3;;;;;;;17.8;73.01172;941.3755;;;;
2020/07/21 01:02:01;;;;;;;7.4;3.5;;;;;;;17.61;73.53711;941.3419;;;;
2020/07/21 01:04:27;;;;;;;5.8;3.4;;;;;;;17.37;74.40137;941.2793;;;;
2020/07/21 01:06:51;;;;;;;6.6;3.5;;;;;;;17.34;74.7334;941.3063;;;;
2020/07/21 01:09:22;;;;;;;4;3.4;;;;;;;17.25;75.03125;941.3652;;;;
2020/07/21 01:11:47;;;;;;;6.3;3.8;;;;;;;17.35;75.12891;941.3351;;;;
2020/07/21 01:14:15;;;;;;;9.7;3.9;;;;;;;17.36;74.77051;941.3011;;;;
2020/07/21 01:16:43;;;;;;;5.3;3.7;;;;;;;17.34;74.54785;941.3328;;;;
2020/07/21 01:19:08;;;;;;;4.2;3.4;;;;;;;17.3;74.68066;941.3236;;;;
2020/07/21 01:21:37;;;;;;;4.2;3.7;;;;;;;17.16;75.39648;941.3353;;;;
2020/07/21 01:24:04;;;;;;;5.6;3.5;;;;;;;17.04;75.88574;941.3495;;;;
2020/07/21 01:26:29;;;;;;;3.9;3.5;;;;;;;17;75.92676;941.3295;;;;
2020/07/21 01:28:59;;;;;;;4.8;3.8;;;;;;;17.06;75.74023;941.231;;;;
2020/07/21 01:31:27;;;;;;;9.1;3.5;;;;;;;16.87;76.40234;941.342;;;;
2020/07/21 01:33:59;;;;;;;5.4;3.9;;;;;;;16.88;76.43848;941.3105;;;;
2020/07/21 01:36:29;;;;;;;11.8;4.2;;;;;;;16.88;76.47168;941.2679;;;;
2020/07/21 01:38:57;;;;;;;4.9;3.6;;;;;;;16.92;76.2832;941.3312;;;;
2020/07/21 01:41:27;;;;;;;6.4;3.5;;;;;;;16.71;77.0459;941.287;;;;
2020/07/21 01:43:52;;;;;;;7.6;3.7;;;;;;;16.71;77.19629;941.3088;;;;
2020/07/21 01:46:23;;;;;;;4.4;3.7;;;;;;;16.71;77.1748;941.3079;;;;
2020/07/21 01:48:55;;;;;;;4.1;3.7;;;;;;;16.72;77.20996;941.3151;;;;
2020/07/21 01:51:22;;;;;;;4.5;3.5;;;;;;;16.79;76.91992;941.2831;;;;
2020/07/21 01:53:47;;;;;;;4.8;3.6;;;;;;;16.56;77.71387;941.246;;;;
2020/07/21 01:56:15;;;;;;;4.8;4;;;;;;;16.24;79.28906;941.3038;;;;
2020/07/21 01:58:40;;;;;;;5;3.8;;;;;;;16.36;79.00879;941.2924;;;;
2020/07/21 02:01:07;;;;;;;5.2;3.7;;;;;;;16.52;78.20508;941.2544;;;;
2020/07/21 02:03:30;;;;;;;6.2;3.8;;;;;;;16.59;77.94043;941.3052;;;;
2020/07/21 02:05:57;;;;;;;4.3;3.7;;;;;;;16.5;78.22461;941.3188;;;;
2020/07/21 02:08:22;;;;;;;7.1;3.9;;;;;;;16.36;78.91797;941.3269;;;;
2020/07/21 02:10:48;;;;;;;4.1;3.6;;;;;;;16.27;79.33984;941.3123;;;;
2020/07/21 02:13:14;;;;;;;5.2;3.8;;;;;;;16.39;78.7959;941.1989;;;;
2020/07/21 02:15:50;;;;;;;4.9;3.8;;;;;;;16.38;78.84082;941.2825;;;;
2020/07/21 02:18:16;;;;;;;4.9;3.7;;;;;;;16.53;78.11426;941.2382;;;;
2020/07/21 02:20:51;;;;;;;5;3.7;;;;;;;16.66;77.43164;941.2381;;;;
2020/07/21 02:23:17;;;;;;;4.3;3.6;;;;;;;16.69;77.33398;941.1682;;;;
2020/07/21 02:25:53;;;;;;;4.2;3.5;;;;;;;16.69;77.37891;941.2374;;;;
2020/07/21 02:28:19;;;;;;;4.3;3.6;;;;;;;16.63;77.53906;941.2304;;;;
2020/07/21 02:30:49;;;;;;;4.5;3.8;;;;;;;16.5;78.0166;941.2022;;;;
2020/07/21 02:33:15;;;;;;;5.7;3.7;;;;;;;16.33;78.94434;941.2686;;;;
2020/07/21 02:35:42;;;;;;;5;3.9;;;;;;;16.44;78.60742;941.1714;;;;
2020/07/21 02:38:07;;;;;;;6.3;3.6;;;;;;;16.49;78.16504;941.1879;;;;
2020/07/21 02:40:42;;;;;;;7.2;3.6;;;;;;;16.5;78.04004;941.1693;;;;
2020/07/21 02:43:12;;;;;;;8.6;4.5;;;;;;;16.45;78.27148;941.1135;;;;
2020/07/21 02:45:39;;;;;;;5.9;3.8;;;;;;;16.33;78.875;941.1456;;;;
2020/07/21 02:48:04;;;;;;;6.5;4.1;;;;;;;16.21;79.35352;941.1655;;;;
2020/07/21 02:50:29;;;;;;;6;4.3;;;;;;;16.03;80.12988;941.1322;;;;
2020/07/21 02:52:54;;;;;;;6.4;4.3;;;;;;;16.07;80.35645;941.1415;;;;
2020/07/21 02:55:19;;;;;;;6.1;4.1;;;;;;;16.22;79.70215;941.16;;;;
2020/07/21 02:57:46;;;;;;;7.2;4.5;;;;;;;16.33;79.16602;941.0724;;;;
2020/07/21 03:00:22;;;;;;;5.5;3.9;;;;;;;16.45;78.9541;941.1183;;;;
2020/07/21 03:02:48;;;;;;;6.8;4.1;;;;;;;16.53;78.08105;941.0927;;;;
2020/07/21 03:05:14;;;;;;;5.5;3.8;;;;;;;16.52;78.07715;941.2191;;;;
2020/07/21 03:07:39;;;;;;;6.8;4;;;;;;;16.38;78.42188;941.1764;;;;
2020/07/21 03:10:04;;;;;;;5.7;3.9;;;;;;;16.38;78.64355;941.1877;;;;
2020/07/21 03:12:31;;;;;;;5.8;4;;;;;;;16.45;78.14551;941.1707;;;;
2020/07/21 03:14:57;;;;;;;4.6;3.6;;;;;;;16.46;78.05664;941.242;;;;
2020/07/21 03:17:26;;;;;;;7.7;4.1;;;;;;;16.45;78.07422;941.1971;;;;
2020/07/21 03:19:51;;;;;;;5.8;4.1;;;;;;;16.41;78.08301;941.2148;;;;
2020/07/21 03:22:20;;;;;;;10.4;4.3;;;;;;;16.36;78.22363;941.1975;;;;
2020/07/21 03:24:50;;;;;;;10;4.1;;;;;;;16.05;79.72852;941.1739;;;;
2020/07/21 03:27:18;;;;;;;8;4.2;;;;;;;16.02;80.02441;941.1733;;;;
2020/07/21 03:29:45;;;;;;;4.6;4.2;;;;;;;16.16;79.29688;941.1658;;;;
2020/07/21 03:32:11;;;;;;;6.7;4.2;;;;;;;16.25;78.87402;941.2458;;;;
2020/07/21 03:34:37;;;;;;;7.4;4.4;;;;;;;16.2;78.85449;941.2692;;;;
2020/07/21 03:37:02;;;;;;;6.1;3.9;;;;;;;16.16;79.1582;941.2783;;;;
2020/07/21 03:39:29;;;;;;;8.4;4;;;;;;;16.17;79.05469;941.2422;;;;
2020/07/21 03:41:54;;;;;;;5.6;4.1;;;;;;;16.07;79.41992;941.3175;;;;
2020/07/21 03:44:22;;;;;;;8.3;4.3;;;;;;;16.07;79.55859;941.3215;;;;
2020/07/21 03:46:51;;;;;;;6;4.2;;;;;;;16.06;79.5332;941.2581;;;;
2020/07/21 03:49:16;;;;;;;5.3;3.8;;;;;;;15.94;80.08887;941.3133;;;;
2020/07/21 03:51:42;;;;;;;9.4;4;;;;;;;16.12;79.31348;941.3083;;;;
2020/07/21 03:54:07;;;;;;;6.4;4.1;;;;;;;16.01;79.60449;941.3192;;;;
2020/07/21 03:56:37;;;;;;;8.3;4.1;;;;;;;16.05;79.68359;941.2798;;;;
2020/07/21 03:59:02;;;;;;;8.8;4.3;;;;;;;16.1;79.29883;941.2611;;;;
2020/07/21 04:03:04;;;;;;;4.7;4.1;;;;;;;16.17;78.98633;941.3635;;;;
2020/07/21 04:05:28;;;;;;;6.3;4.1;;;;;;;16.11;79.03418;941.3647;;;;
2020/07/21 04:07:54;;;;;;;7.6;4.2;;;;;;;15.93;79.98242;941.3494;;;;
2020/07/21 04:10:20;;;;;;;7.7;4.5;;;;;;;15.94;79.92676;941.4016;;;;
2020/07/21 04:12:45;;;;;;;5.7;5;;;;;;;15.96;79.82813;941.334;;;;
2020/07/21 04:15:11;;;;;;;11.1;5.3;;;;;;;15.99;79.79785;941.3603;;;;
2020/07/21 04:17:38;;;;;;;8.3;4.8;;;;;;;16.04;79.43652;941.3828;;;;
2020/07/21 04:20:14;;;;;;;9.6;4.6;;;;;;;16.08;79.28418;941.3503;;;;
2020/07/21 04:22:40;;;;;;;12.3;6;;;;;;;16.17;78.85938;941.3939;;;;
2020/07/21 04:25:24;;;;;;;10.8;5.6;;;;;;;16.21;78.56641;941.3197;;;;
2020/07/21 04:27:49;;;;;;;8.7;4.6;;;;;;;15.91;79.84082;941.3801;;;;
2020/07/21 04:30:26;;;;;;;10;6.8;;;;;;;15.9;80.29004;941.4051;;;;
2020/07/21 04:32:51;;;;;;;21.5;10.3;;;;;;;16.05;79.62402;941.4583;;;;
2020/07/21 04:35:23;;;;;;;19;10;;;;;;;16.21;78.76367;941.4161;;;;
2020/07/21 04:37:53;;;;;;;11.9;8.9;;;;;;;16.15;79.0293;941.3209;;;;
2020/07/21 04:40:26;;;;;;;11.4;6.3;;;;;;;16.15;79.0293;941.3603;;;;
2020/07/21 04:42:51;;;;;;;13.4;7.9;;;;;;;16.27;79.26074;941.3918;;;;
2020/07/21 04:45:26;;;;;;;10.2;5.6;;;;;;;16.43;78.25781;941.3644;;;;
2020/07/21 04:47:55;;;;;;;9.2;4.9;;;;;;;16.37;77.91113;941.3702;;;;
2020/07/21 04:50:20;;;;;;;12;4.9;;;;;;;16.29;78.41797;941.3613;;;;
2020/07/21 04:52:45;;;;;;;21.7;5.5;;;;;;;16.27;78.44922;941.3526;;;;
2020/07/21 04:55:10;;;;;;;7.2;4.4;;;;;;;16.15;78.97168;941.3322;;;;
2020/07/21 04:57:36;;;;;;;6.5;4.3;;;;;;;16.24;78.79102;941.3962;;;;
2020/07/21 05:00:02;;;;;;;9.4;4.7;;;;;;;16.2;79.28223;941.4098;;;;
2020/07/21 05:02:27;;;;;;;12.3;4.7;;;;;;;16.14;79.46777;941.4584;;;;
2020/07/21 05:04:54;;;;;;;7.1;4.2;;;;;;;16.01;79.69727;941.3931;;;;
2020/07/21 05:07:19;;;;;;;7.7;4.3;;;;;;;16.04;79.80762;941.3764;;;;
2020/07/21 05:09:46;;;;;;;10.2;4.9;;;;;;;16.04;79.90039;941.4029;;;;
2020/07/21 05:12:12;;;;;;;12.3;4.8;;;;;;;16.13;79.48926;941.3162;;;;
2020/07/21 05:14:37;;;;;;;11.8;4.7;;;;;;;16.08;79.78125;941.3078;;;;
2020/07/21 05:17:02;;;;;;;9.7;4.5;;;;;;;16.25;79.68359;941.3639;;;;
2020/07/21 05:19:30;;;;;;;10.1;4;;;;;;;17.1;76.52441;941.2731;;;;
2020/07/21 05:21:55;;;;;;;10.7;3.9;;;;;;;18.41;71.22949;941.2731;;;;
2020/07/21 05:24:20;;;;;;;16.2;4.3;;;;;;;19.6;66.5957;941.2828;;;;
2020/07/21 05:26:46;;;;;;;7;3.5;;;;;;;20.64;62.59277;941.2906;;;;
2020/07/21 05:29:11;;;;;;;6.9;3.1;;;;;;;21.8;58.84375;941.2371;;;;
2020/07/21 05:31:37;;;;;;;11.5;3.5;;;;;;;22.52;56.72168;941.2784;;;;
2020/07/21 05:34:03;;;;;;;9.2;2.8;;;;;;;23.29;53.74023;941.2761;;;;
2020/07/21 05:36:32;;;;;;;14.5;3.7;;;;;;;23.21;53.27344;941.2793;;;;
2020/07/21 05:38:57;;;;;;;7.2;3.1;;;;;;;22.84;54.4375;941.2176;;;;
2020/07/21 05:41:22;;;;;;;6.4;2.7;;;;;;;23.54;52.54883;941.2202;;;;
2020/07/21 05:43:49;;;;;;;15.1;3.6;;;;;;;24.35;50.61816;941.25;;;;
2020/07/21 05:46:14;;;;;;;10.7;3.1;;;;;;;24.47;50.70117;941.2336;;;;
2020/07/21 05:48:39;;;;;;;9.8;3.2;;;;;;;24.88;49.49609;941.2689;;;;
2020/07/21 05:51:06;;;;;;;6.5;2.6;;;;;;;25.5;47.55859;941.2322;;;;
2020/07/21 05:53:30;;;;;;;4.8;2.3;;;;;;;25.97;47.7373;941.2439;;;;
2020/07/21 05:55:56;;;;;;;11.1;2.9;;;;;;;26.87;46.05664;941.2122;;;;
2020/07/21 05:58:21;;;;;;;8.2;2.4;;;;;;;26.81;43.92871;941.1845;;;;
2020/07/21 06:00:52;;;;;;;10.4;2.6;;;;;;;26.98;42.46484;941.1281;;;;
2020/07/21 06:03:21;;;;;;;11.6;2.6;;;;;;;27.47;42.54688;941.1774;;;;
2020/07/21 06:05:52;;;;;;;9;2.2;;;;;;;28.17;40.10645;941.1872;;;;
2020/07/21 06:08:22;;;;;;;7.6;2.2;;;;;;;28.49;39.61133;941.27;;;;
2020/07/21 06:10:51;;;;;;;8.1;2.3;;;;;;;28.37;39.39844;941.2574;;;;
2020/07/21 06:13:20;;;;;;;6.3;2.3;;;;;;;28.22;39.96777;941.2296;;;;
2020/07/21 06:16:00;;;;;;;8.6;2.3;;;;;;;28.5;40.02832;941.1888;;;;
2020/07/21 06:18:29;;;;;;;7.3;2.1;;;;;;;28.06;41.67578;941.1453;;;;
2020/07/21 06:21:05;;;;;;;4.3;2;;;;;;;28.55;39.12793;941.2355;;;;
2020/07/21 06:23:35;;;;;;;6.6;2.6;;;;;;;28.89;39.08691;941.2065;;;;
2020/07/21 06:26:06;;;;;;;12.8;2.6;;;;;;;30.09;38.78516;941.1689;;;;
2020/07/21 06:28:36;;;;;;;10.4;2.5;;;;;;;30.48;35.4502;941.1936;;;;
2020/07/21 06:31:03;;;;;;;9.6;2.7;;;;;;;30.88;34.56152;941.1603;;;;
2020/07/21 06:33:30;;;;;;;9.5;2.6;;;;;;;31.56;32.93652;941.1389;;;;
2020/07/21 06:35:59;;;;;;;7.4;2.2;;;;;;;31.16;33.79297;941.1537;;;;
2020/07/21 06:38:33;;;;;;;9;1.9;;;;;;;31.86;32.85059;941.1696;;;;
2020/07/21 06:40:58;;;;;;;5.2;2.1;;;;;;;31.82;32.65625;941.2008;;;;
2020/07/21 06:43:27;;;;;;;9.1;2.7;;;;;;;33.06;31.95215;941.2031;;;;
2020/07/21 06:46:00;;;;;;;6.3;2.4;;;;;;;33.4;30.87109;941.1802;;;;
2020/07/21 06:48:29;;;;;;;4.1;1.9;;;;;;;33.82;29.74316;941.1593;;;;
2020/07/21 06:50:59;;;;;;;2.4;1.5;;;;;;;32.88;30.88281;941.1806;;;;
2020/07/21 06:53:25;;;;;;;4.1;1.9;;;;;;;32.94;34.12988;941.1586;;;;
2020/07/21 06:55:50;;;;;;;3.3;1.7;;;;;;;33.61;33.21777;941.1111;;;;
2020/07/21 06:58:19;;;;;;;2.7;1.4;;;;;;;34.47;31.12402;941.062;;;;
2020/07/21 07:00:55;;;;;;;2.7;1.7;;;;;;;34.25;32.22949;941.0536;;;;
2020/07/21 07:03:25;;;;;;;4.3;1.8;;;;;;;33.84;32.28418;941.1183;;;;
2020/07/21 07:05:49;;;;;;;2.8;1.7;;;;;;;34.24;29.48242;941.0704;;;;
2020/07/21 07:08:18;;;;;;;5.3;1.7;;;;;;;35.27;29.30664;941.0576;;;;
2020/07/21 07:10:47;;;;;;;1.9;1.5;;;;;;;35.85;29.48926;941.0559;;;;
2020/07/21 07:13:15;;;;;;;3.4;1.5;;;;;;;36.32;26.34961;941.0511;;;;
2020/07/21 07:15:55;;;;;;;2.4;1.3;;;;;;;36.58;28.49512;941.0237;;;;
2020/07/21 07:18:24;;;;;;;2.4;1.6;;;;;;;35.59;26.53809;941.0505;;;;
2020/07/21 07:20:49;;;;;;;4;1.7;;;;;;;34.12;31.56934;941.0742;;;;
2020/07/21 07:23:18;;;;;;;3.3;1.7;;;;;;;34.39;31.76855;941.1013;;;;
2020/07/21 07:25:42;;;;;;;3.8;1.7;;;;;;;35.02;30.69043;941.0394;;;;
2020/07/21 07:28:13;;;;;;;3.1;1.7;;;;;;;36.82;26.83887;941.0712;;;;
2020/07/21 07:30:41;;;;;;;2.4;1.7;;;;;;;36.06;27.13281;941.0544;;;;
2020/07/21 07:33:07;;;;;;;5.3;1.8;;;;;;;35;31.48535;941.0984;;;;
2020/07/21 07:35:32;;;;;;;4.9;1.6;;;;;;;35.09;28.88477;941.0684;;;;
2020/07/21 07:38:03;;;;;;;3.8;1.6;;;;;;;35.25;27.76074;941.0603;;;;
2020/07/21 07:40:33;;;;;;;4.1;1.7;;;;;;;36.11;28.13965;941.0424;;;;
2020/07/21 07:42:58;;;;;;;3.3;1.7;;;;;;;35.92;29.53027;941.0355;;;;
2020/07/21 07:45:24;;;;;;;4.5;1.7;;;;;;;34.43;33.2168;941.1003;;;;
2020/07/21 07:47:53;;;;;;;4.6;1.7;;;;;;;33.64;30.75391;941.1687;;;;
2020/07/21 07:50:23;;;;;;;2.5;1.9;;;;;;;33.47;34.95117;941.1473;;;;
2020/07/21 07:52:52;;;;;;;5.7;1.9;;;;;;;32.81;35.72852;941.1677;;;;
2020/07/21 07:55:17;;;;;;;5.1;1.9;;;;;;;32.72;37.46191;941.2147;;;;
2020/07/21 07:57:45;;;;;;;4.6;1.9;;;;;;;32.74;37.52344;941.2307;;;;
2020/07/21 08:00:10;;;;;;;3.4;1.6;;;;;;;32.7;37.97656;941.259;;;;
2020/07/21 08:02:35;;;;;;;4.8;2.1;;;;;;;32.96;37.31445;941.2162;;;;
2020/07/21 08:05:03;;;;;;;4.1;2.2;;;;;;;33.08;36.92773;941.1771;;;;
2020/07/21 08:07:28;;;;;;;4.2;2.1;;;;;;;32.89;36.79102;941.2608;;;;
2020/07/21 08:09:53;;;;;;;7.7;2.2;;;;;;;32.9;38.24512;941.2584;;;;
2020/07/21 08:12:19;;;;;;;4.9;1.9;;;;;;;32.9;38.11328;941.257;;;;
2020/07/21 08:14:47;;;;;;;6.9;2.2;;;;;;;32.05;38.61816;941.2378;;;;
2020/07/21 08:17:14;;;;;;;5.8;2.1;;;;;;;31.61;39.15527;941.2842;;;;
2020/07/21 08:19:39;;;;;;;6.1;2.6;;;;;;;31.15;41.50781;941.2791;;;;
2020/07/21 08:22:08;;;;;;;7.5;2.4;;;;;;;30.73;44.23047;941.2245;;;;
2020/07/21 08:24:33;;;;;;;6.8;2.4;;;;;;;30.05;45.89355;941.2533;;;;
2020/07/21 08:26:58;;;;;;;5;2.3;;;;;;;30.1;42.97363;941.2392;;;;
2020/07/21 08:29:25;;;;;;;4.1;2.1;;;;;;;30.08;42.88867;941.2586;;;;
2020/07/21 08:31:54;;;;;;;8.7;2.2;;;;;;;30.05;42.74316;941.3072;;;;
2020/07/21 08:34:23;;;;;;;3.3;2.1;;;;;;;29.81;40.70508;941.2733;;;;
2020/07/21 08:36:49;;;;;;;2.4;2.1;;;;;;;29.31;43.29199;941.3149;;;;
2020/07/21 08:39:22;;;;;;;4.7;2.5;;;;;;;28.44;44.83789;941.3437;;;;
2020/07/21 08:41:48;;;;;;;7.5;2.4;;;;;;;28.39;45.83105;941.3553;;;;
2020/07/21 08:44:12;;;;;;;5.2;2.4;;;;;;;28.4;46.47559;941.412;;;;
2020/07/21 08:46:38;;;;;;;6;2.1;;;;;;;28.21;46.59863;941.4152;;;;
2020/07/21 08:49:08;;;;;;;4.8;2.2;;;;;;;27.91;48.09863;941.392;;;;
2020/07/21 08:51:33;;;;;;;5.2;2.2;;;;;;;27.74;47.95117;941.4283;;;;
2020/07/21 08:54:02;;;;;;;5.4;2.4;;;;;;;27.46;48.94043;941.3923;;;;
2020/07/21 08:56:32;;;;;;;6;2.5;;;;;;;27.43;50.87109;941.4215;;;;
2020/07/21 08:58:57;;;;;;;5.9;2.3;;;;;;;27.28;52.61035;941.4575;;;;
2020/07/21 09:01:22;;;;;;;3.8;2.2;;;;;;;27.25;51.33691;941.4606;;;;
2020/07/21 09:03:50;;;;;;;2.9;2.2;;;;;;;27.31;51.1416;941.5242;;;;
2020/07/21 09:06:15;;;;;;;4;2.3;;;;;;;27.22;52.40137;941.5135;;;;
2020/07/21 09:08:40;;;;;;;3.8;2.2;;;;;;;27.24;51.50195;941.4978;;;;
2020/07/21 09:11:07;;;;;;;5;2.2;;;;;;;27.23;50.89453;941.4633;;;;
2020/07/21 09:13:32;;;;;;;3.8;2.4;;;;;;;27.37;51.10254;941.5513;;;;
2020/07/21 09:16:01;;;;;;;7.3;3.4;;;;;;;27.27;50.03418;941.6218;;;;
2020/07/21 09:18:26;;;;;;;12.5;5;;;;;;;27.17;47.77051;941.6666;;;;
2020/07/21 09:20:51;;;;;;;5.8;2.2;;;;;;;27.27;47.61523;941.6356;;;;
2020/07/21 09:23:16;;;;;;;3.4;2.2;;;;;;;27.24;46.79395;941.625;;;;
2020/07/21 09:25:41;;;;;;;4.9;2.4;;;;;;;27.17;49.00391;941.7081;;;;
2020/07/21 09:28:08;;;;;;;5;2.6;;;;;;;27.17;46.86914;941.766;;;;
2020/07/21 09:30:38;;;;;;;4.7;2.2;;;;;;;27.05;46.97461;941.7625;;;;
2020/07/21 09:33:06;;;;;;;22.9;8.5;;;;;;;26.88;47.28906;941.7227;;;;
2020/07/21 09:35:31;;;;;;;7.9;3.5;;;;;;;26.87;48.22461;941.8176;;;;
2020/07/21 09:37:57;;;;;;;4.6;2.4;;;;;;;26.86;50.75977;941.8436;;;;
2020/07/21 09:40:22;;;;;;;16.3;5.1;;;;;;;26.88;51.96973;941.8452;;;;
2020/07/21 09:42:48;;;;;;;6.4;3.1;;;;;;;27.44;47.58691;941.8317;;;;
2020/07/21 09:45:14;;;;;;;15;5.1;;;;;;;28.62;46.87793;941.8822;;;;
2020/07/21 09:47:39;;;;;;;13.5;5.2;;;;;;;29.35;42.31934;941.8669;;;;
2020/07/21 09:50:06;;;;;;;10.8;3.8;;;;;;;29.66;40.5957;941.8513;;;;
2020/07/21 09:52:31;;;;;;;12.4;2.6;;;;;;;29.84;39.78906;941.8344;;;;
2020/07/21 09:54:58;;;;;;;8.9;3.6;;;;;;;29.87;43.72754;941.8693;;;;
2020/07/21 09:57:23;;;;;;;10.7;4.1;;;;;;;29.89;40.99805;941.9285;;;;
2020/07/21 09:59:50;;;;;;;5.4;2.8;;;;;;;29.66;39.45117;941.9057;;;;
2020/07/21 10:02:18;;;;;;;5.7;2.5;;;;;;;30.09;40.34863;941.9621;;;;
2020/07/21 10:04:43;;;;;;;11.1;4.7;;;;;;;30.29;39.61426;941.9214;;;;
2020/07/21 10:07:08;;;;;;;7.3;2.4;;;;;;;30.29;40.82031;941.9706;;;;
2020/07/21 10:09:33;;;;;;;9.2;2.2;;;;;;;30.23;40.39551;941.8986;;;;
2020/07/21 10:11:58;;;;;;;5.6;2.2;;;;;;;30.2;39.92871;941.9632;;;;
2020/07/21 10:14:27;;;;;;;4.3;2.2;;;;;;;30.08;40.0127;941.9272;;;;
2020/07/21 10:16:57;;;;;;;11.8;3.9;;;;;;;30.15;41.58301;941.9344;;;;
2020/07/21 10:19:22;;;;;;;10.8;3.4;;;;;;;30.33;39.76074;941.8889;;;;
2020/07/21 10:21:49;;;;;;;11.8;3.2;;;;;;;30.64;40.40918;941.9283;;;;
2020/07/21 10:24:14;;;;;;;4.7;2.2;;;;;;;30.71;40.73828;941.9231;;;;
2020/07/21 10:26:43;;;;;;;3.9;1.8;;;;;;;31.2;42.12207;941.8995;;;;
2020/07/21 10:29:05;;;;;;;2.6;1.7;;;;;;;31.17;39.32031;941.8976;;;;
2020/07/21 10:31:33;;;;;;;9.4;2.7;;;;;;;30.81;38.83496;941.8867;;;;
2020/07/21 10:33:58;;;;;;;4.7;1.8;;;;;;;30.85;41.15723;941.8897;;;;
2020/07/21 10:36:24;;;;;;;3.6;2;;;;;;;30.38;39.22754;941.8611;;;;
2020/07/21 10:38:49;;;;;;;5.3;2.6;;;;;;;30.86;39.97461;941.9032;;;;
2020/07/21 10:41:15;;;;;;;4.1;1.7;;;;;;;30.86;38.67188;941.9069;;;;
2020/07/21 10:43:40;;;;;;;4.6;2.1;;;;;;;30.68;41.39258;941.8649;;;;
2020/07/21 10:46:05;;;;;;;7.3;2.2;;;;;;;31.04;38.97461;941.8381;;;;
2020/07/21 10:48:31;;;;;;;2.8;2;;;;;;;31.26;39.78223;941.7908;;;;
2020/07/21 10:50:57;;;;;;;3;1.7;;;;;;;31.33;39.9082;941.8141;;;;
2020/07/21 10:53:22;;;;;;;2.8;1.9;;;;;;;31.36;37.99707;941.7709;;;;
2020/07/21 10:55:50;;;;;;;5.6;2.6;;;;;;;31.01;38.25391;941.8239;;;;
2020/07/21 10:58:15;;;;;;;5.5;2.7;;;;;;;31.12;37.73633;941.8013;;;;
2020/07/21 11:00:42;;;;;;;3.8;2;;;;;;;30.88;37.32227;941.7974;;;;
2020/07/21 11:03:08;;;;;;;4.9;2.3;;;;;;;30.87;41.01563;941.8483;;;;
2020/07/21 11:05:33;;;;;;;6;2.1;;;;;;;30.64;41.93945;941.8293;;;;
2020/07/21 11:07:59;;;;;;;2.8;1.8;;;;;;;30.53;43.68457;941.8674;;;;
2020/07/21 11:10:24;;;;;;;4.6;2;;;;;;;30.56;40.58105;941.853;;;;
2020/07/21 11:12:49;;;;;;;3.3;2.2;;;;;;;30.65;40.64844;941.8464;;;;
2020/07/21 11:15:15;;;;;;;4.8;2.3;;;;;;;30.66;40.79395;941.8438;;;;
2020/07/21 11:17:42;;;;;;;5.1;2.4;;;;;;;30.83;39.84082;941.894;;;;
2020/07/21 11:20:07;;;;;;;4.6;2.3;;;;;;;30.97;39.33789;941.846;;;;
2020/07/21 11:22:35;;;;;;;3.1;2.1;;;;;;;30.86;41.38574;941.8134;;;;
2020/07/21 11:25:00;;;;;;;4.4;2.3;;;;;;;30.72;39.87793;941.8147;;;;
2020/07/21 11:27:25;;;;;;;3.8;2.3;;;;;;;30.91;38.50879;941.8628;;;;
2020/07/21 11:29:50;;;;;;;3.4;2.3;;;;;;;30.7;38.84961;941.8363;;;;
2020/07/21 11:32:16;;;;;;;3.8;2.2;;;;;;;30.68;39.58789;941.9037;;;;
2020/07/21 11:34:41;;;;;;;4.4;2.3;;;;;;;30.61;41.01563;941.9109;;;;
2020/07/21 11:37:07;;;;;;;3.5;2;;;;;;;30.71;42.49414;941.8992;;;;
2020/07/21 11:39:33;;;;;;;7;2.9;;;;;;;30.9;40.16895;941.8069;;;;
2020/07/21 11:41:58;;;;;;;3.4;1.8;;;;;;;30.98;40.59473;941.8345;;;;
2020/07/21 11:44:23;;;;;;;5.6;2.4;;;;;;;30.94;39.66992;941.7888;;;;
2020/07/21 11:46:48;;;;;;;4.5;2.3;;;;;;;30.9;39.66699;941.7551;;;;
2020/07/21 11:49:14;;;;;;;4.1;2.3;;;;;;;31.07;40.80664;941.7189;;;;
2020/07/21 11:51:39;;;;;;;2.2;1.7;;;;;;;31.23;39.85156;941.7142;;;;
2020/07/21 11:54:05;;;;;;;3.6;2.2;;;;;;;31.53;40.15332;941.7136;;;;
2020/07/21 11:56:30;;;;;;;2.8;1.9;;;;;;;31.33;39.07129;941.6403;;;;
2020/07/21 11:58:56;;;;;;;4.4;2;;;;;;;31.61;39.60938;941.5958;;;;
2020/07/21 12:01:24;;;;;;;4.4;2.1;;;;;;;31.56;41.03027;941.6042;;;;
2020/07/21 12:03:53;;;;;;;3.8;1.8;;;;;;;31.72;41.11719;941.5605;;;;
2020/07/21 12:06:18;;;;;;;3.6;1.9;;;;;;;31.66;40.44043;941.5588;;;;
2020/07/21 12:08:43;;;;;;;2.8;2;;;;;;;31.77;38.65332;941.593;;;;
2020/07/21 12:11:10;;;;;;;6.3;2.1;;;;;;;31.92;41.39844;941.4949;;;;
2020/07/21 12:13:35;;;;;;;4.6;1.8;;;;;;;31.88;38.92676;941.5105;;;;
2020/07/21 12:16:04;;;;;;;3.7;1.8;;;;;;;32.06;39.76953;941.4985;;;;
2020/07/21 12:18:29;;;;;;;3.9;1.8;;;;;;;32.26;37.96387;941.4816;;;;
2020/07/21 12:20:56;;;;;;;4.1;1.8;;;;;;;32.49;36.95215;941.5419;;;;
2020/07/21 12:23:21;;;;;;;4.6;2.6;;;;;;;32.74;37.96777;941.5226;;;;
2020/07/21 12:25:47;;;;;;;4.9;2;;;;;;;32.81;35.28418;941.5736;;;;
2020/07/21 12:28:12;;;;;;;3.8;1.9;;;;;;;32.6;35.71289;941.5286;;;;
2020/07/21 12:30:37;;;;;;;4.2;2.1;;;;;;;32.52;35.63379;941.5051;;;;
2020/07/21 12:33:02;;;;;;;5;1.8;;;;;;;32.49;34.94824;941.5086;;;;
2020/07/21 12:35:27;;;;;;;4.2;2.1;;;;;;;32.61;35.98828;941.4698;;;;
2020/07/21 12:37:53;;;;;;;6.4;2.1;;;;;;;32.59;36.04785;941.5154;;;;
2020/07/21 12:40:18;;;;;;;5.4;1.9;;;;;;;32.67;37.0625;941.4545;;;;
2020/07/21 12:42:53;;;;;;;4.4;2.2;;;;;;;32.78;38.77637;941.5167;;;;
2020/07/21 12:45:27;;;;;;;4.6;2.1;;;;;;;32.84;37.32813;941.3884;;;;
2020/07/21 12:47:53;;;;;;;3.8;2.2;;;;;;;32.73;37.72656;941.3983;;;;
2020/07/21 12:50:17;;;;;;;3.5;2.1;;;;;;;32.83;38.14355;941.3807;;;;
2020/07/21 12:52:43;;;;;;;4.6;2;;;;;;;32.71;35.49316;941.3849;;;;
2020/07/21 12:55:08;;;;;;;6.4;2;;;;;;;32.66;36.74902;941.355;;;;
2020/07/21 12:57:33;;;;;;;4.8;1.9;;;;;;;32.78;37.55078;941.3399;;;;
2020/07/21 12:59:58;;;;;;;3.9;2.1;;;;;;;32.8;36.86816;941.3456;;;;
2020/07/21 13:02:27;;;;;;;4.1;1.9;;;;;;;32.82;36.5459;941.3022;;;;
2020/07/21 13:04:52;;;;;;;4.4;2.3;;;;;;;32.64;36.47168;941.3264;;;;
2020/07/21 13:07:17;;;;;;;4.3;2.1;;;;;;;32.54;37.33887;941.2816;;;;
2020/07/21 13:09:42;;;;;;;3.6;1.9;;;;;;;32.67;39.52246;941.2598;;;;
2020/07/21 13:12:07;;;;;;;6.6;2.1;;;;;;;32.7;38.90039;941.2441;;;;
2020/07/21 13:14:37;;;;;;;3.9;2;;;;;;;32.65;39.3291;941.2614;;;;
2020/07/21 13:17:04;;;;;;;5.6;2.2;;;;;;;32.34;39.12207;941.2015;;;;
2020/07/21 13:19:29;;;;;;;6.1;2.2;;;;;;;32.03;39.31152;941.1747;;;;
2020/07/21 13:22:00;;;;;;;4.6;2;;;;;;;31.79;39.32617;941.1498;;;;
2020/07/21 13:24:26;;;;;;;6.7;2.1;;;;;;;31.57;40.20508;941.1437;;;;
2020/07/21 13:27:42;;;;;;;3.9;1.9;;;;;;;30.98;39.99805;941.1063;;;;
2020/07/21 13:30:07;;;;;;;3.3;2;;;;;;;30.59;42.20898;941.098;;;;
2020/07/21 13:32:33;;;;;;;4.2;1.9;;;;;;;30.53;42.38281;941.0605;;;;
2020/07/21 13:34:59;;;;;;;4.1;2.1;;;;;;;30.56;42.81445;941.0308;;;;
2020/07/21 13:37:24;;;;;;;5.5;2.4;;;;;;;30.25;41.00781;940.9744;;;;
2020/07/21 13:39:53;;;;;;;3.6;2;;;;;;;30.16;41.70313;940.9785;;;;
2020/07/21 13:42:18;;;;;;;4;2;;;;;;;29.91;43.04004;940.9572;;;;
2020/07/21 13:44:43;;;;;;;4.2;2;;;;;;;30.02;44.25586;940.8895;;;;
2020/07/21 13:47:10;;;;;;;3.2;2.1;;;;;;;30.22;43.06934;940.8738;;;;
2020/07/21 13:49:35;;;;;;;2.9;1.8;;;;;;;30.34;42.20898;940.725;;;;
2020/07/21 13:52:00;;;;;;;4.3;2.1;;;;;;;30.42;42.36133;940.7598;;;;
2020/07/21 13:54:25;;;;;;;4;2;;;;;;;29.79;41.77637;940.8035;;;;
2020/07/21 13:56:52;;;;;;;4.4;2.2;;;;;;;29.59;44.57129;940.7611;;;;
2020/07/21 13:59:17;;;;;;;4.4;2.1;;;;;;;29.71;42.9375;940.7642;;;;
2020/07/21 14:01:42;;;;;;;4.3;2;;;;;;;29.68;45.03418;940.7818;;;;
2020/07/21 14:04:09;;;;;;;2.8;2;;;;;;;29.93;43.11328;940.7464;;;;
2020/07/21 14:06:34;;;;;;;7.1;2.2;;;;;;;30.13;45.74609;940.8226;;;;
2020/07/21 14:09:00;;;;;;;7;2.1;;;;;;;30.1;43.27441;940.7894;;;;
2020/07/21 14:11:25;;;;;;;3.9;2.1;;;;;;;30.06;44.83301;940.7584;;;;
2020/07/21 14:13:53;;;;;;;3.9;1.9;;;;;;;30.11;43.73926;940.6942;;;;
2020/07/21 14:16:18;;;;;;;5;2.2;;;;;;;30.06;43.00684;940.6744;;;;
2020/07/21 14:18:43;;;;;;;6.2;2.1;;;;;;;30.08;44.30859;940.6057;;;;
2020/07/21 14:21:09;;;;;;;4.3;2;;;;;;;30.21;42.43652;940.6479;;;;
2020/07/21 14:23:34;;;;;;;4.9;2.1;;;;;;;30.22;41.93555;940.6213;;;;